Time;durP1;ratioP1;P1;durP2;ratioP2;P2;SDS_P1;SDS_P2;PMS_P1;PMS_P2;Temp;Humidity;BMP_temperature;BMP_pressure;BME280_temperature;BME280_humidity;BME280_pressure;Samples;Min_cycle;Max_cycle;Signal;HPM_P1;HPM_P2
2022/06/12 00:00:38;;;;;;;7.57;7.00;;;;;;;21.89;64.62;94311.41;4977157;28;20444;-75
2022/06/12 00:03:06;;;;;;;6.73;6.30;;;;;;;21.92;64.60;94316.22;4973711;28;20246;-76
2022/06/12 00:05:35;;;;;;;7.83;7.20;;;;;;;21.83;64.94;94317.84;4972243;28;20437;-75
2022/06/12 00:08:02;;;;;;;7.80;7.10;;;;;;;21.88;64.73;94315.16;4973936;28;20453;-75
2022/06/12 00:10:28;;;;;;;7.57;6.97;;;;;;;22.17;64.07;94309.16;4975071;28;20452;-76
2022/06/12 00:12:53;;;;;;;7.17;6.53;;;;;;;22.34;63.44;94306.16;4975112;28;20581;-76
2022/06/12 00:15:24;;;;;;;7.90;7.30;;;;;;;21.89;64.00;94310.63;4971558;28;20521;-76
2022/06/12 00:17:50;;;;;;;6.80;6.20;;;;;;;22.20;63.75;94305.97;4976042;28;20366;-76
2022/06/12 00:20:17;;;;;;;10.40;7.20;;;;;;;22.33;63.97;94305.38;4972872;28;20756;-76
2022/06/12 00:22:43;;;;;;;8.03;7.37;;;;;;;21.80;64.61;94302.44;4974857;28;20467;-74
2022/06/12 00:25:09;;;;;;;7.93;7.10;;;;;;;22.07;64.42;94303.91;4974078;28;20433;-76
2022/06/12 00:27:36;;;;;;;6.60;6.10;;;;;;;21.56;65.55;94303.03;4974823;28;20519;-75
2022/06/12 00:30:03;;;;;;;8.67;7.20;;;;;;;21.51;66.18;94299.59;4966296;28;20425;-76
2022/06/12 00:32:30;;;;;;;8.27;7.57;;;;;;;21.86;65.14;94304.00;4973434;28;20441;-76
2022/06/12 00:34:56;;;;;;;7.00;6.50;;;;;;;21.42;66.96;94294.00;4971501;28;20570;-76
2022/06/12 00:37:23;;;;;;;7.87;6.97;;;;;;;22.00;64.88;94296.97;4967454;28;20980;-76
2022/06/12 00:39:51;;;;;;;7.90;7.20;;;;;;;22.00;64.84;94306.84;4974804;28;20273;-76
2022/06/12 00:42:23;;;;;;;7.80;7.20;;;;;;;21.94;64.62;94303.41;4971539;28;20507;-75
2022/06/12 00:44:49;;;;;;;8.43;7.77;;;;;;;21.67;65.65;94303.81;4972124;28;20468;-76
2022/06/12 00:47:15;;;;;;;10.40;7.77;;;;;;;21.83;65.10;94299.19;4972796;28;20433;-75
2022/06/12 00:49:55;;;;;;;8.50;7.33;;;;;;;21.50;66.50;94304.13;4973469;28;20440;-75
2022/06/12 00:52:23;;;;;;;8.17;7.47;;;;;;;21.73;65.30;94301.91;4971845;28;20959;-76
2022/06/12 00:54:53;;;;;;;8.13;7.20;;;;;;;21.34;66.58;94300.69;4971786;28;20504;-75
2022/06/12 00:57:20;;;;;;;9.23;8.53;;;;;;;21.93;64.82;94307.16;4973468;28;20509;-75
2022/06/12 00:59:50;;;;;;;8.10;7.40;;;;;;;21.31;66.71;94295.91;4972917;28;20440;-76
2022/06/12 01:02:20;;;;;;;7.50;6.90;;;;;;;21.99;64.57;94302.59;4977968;28;20441;-76
2022/06/12 01:07:36;;;;;;;8.53;7.83;;;;;;;21.45;66.29;94288.94;4977570;28;20431;-75
2022/06/12 01:10:05;;;;;;;8.30;7.70;;;;;;;21.33;67.06;94293.75;4981256;28;20445;-75
2022/06/12 01:12:35;;;;;;;8.83;8.00;;;;;;;21.36;66.81;94284.41;4975374;28;20473;-76
2022/06/12 01:15:07;;;;;;;8.30;7.73;;;;;;;21.49;66.48;94294.53;4975215;28;20963;-77
2022/06/12 01:17:33;;;;;;;8.33;7.73;;;;;;;21.24;67.17;94290.06;4973677;28;20445;-76
2022/06/12 01:20:08;;;;;;;7.80;7.23;;;;;;;21.49;66.40;94288.41;4976592;28;20451;-75
2022/06/12 01:22:48;;;;;;;7.20;6.60;;;;;;;21.22;67.18;94286.88;4974323;28;20458;-76
2022/06/12 01:25:26;;;;;;;8.70;7.87;;;;;;;21.24;67.29;94277.53;4973633;28;20491;-77
2022/06/12 01:28:32;;;;;;;9.20;8.47;;;;;;;21.12;68.17;94276.25;4972128;28;20437;-76
2022/06/12 01:31:17;;;;;;;12.37;8.30;;;;;;;21.76;65.74;94270.22;4974208;28;20507;-76
2022/06/12 01:34:01;;;;;;;8.77;8.07;;;;;;;21.22;67.82;94266.34;4979646;28;20524;-75
2022/06/12 01:36:42;;;;;;;8.57;7.77;;;;;;;21.15;68.02;94263.22;4975556;28;20432;-75
2022/06/12 01:39:32;;;;;;;8.23;7.60;;;;;;;21.34;67.19;94266.09;4985558;28;20463;-75
2022/06/12 01:42:19;;;;;;;9.00;8.30;;;;;;;21.21;67.34;94264.00;4968941;28;20409;-76
2022/06/12 01:45:06;;;;;;;7.93;7.33;;;;;;;21.18;67.18;94267.19;4974619;28;20468;-75
2022/06/12 01:47:40;;;;;;;8.03;7.13;;;;;;;21.35;66.67;94270.31;4977666;28;20503;-76
2022/06/12 01:50:32;;;;;;;7.70;7.10;;;;;;;21.36;65.93;94273.78;4974511;28;20421;-76
2022/06/12 01:53:10;;;;;;;8.30;7.60;;;;;;;20.94;66.94;94270.41;4962721;28;20956;-75
2022/06/12 01:55:46;;;;;;;8.80;8.00;;;;;;;21.33;66.03;94271.66;4976985;28;20507;-75
2022/06/12 01:58:26;;;;;;;8.90;8.10;;;;;;;21.49;65.20;94273.22;4981505;28;20455;-75
2022/06/12 02:01:02;;;;;;;7.97;7.47;;;;;;;21.24;65.62;94266.09;4984774;28;20419;-77
2022/06/12 02:03:53;;;;;;;7.57;7.07;;;;;;;21.67;64.55;94276.38;4914239;28;20472;-76
2022/06/12 02:06:42;;;;;;;9.10;8.20;;;;;;;21.55;64.69;94279.34;4976557;28;20521;-76
2022/06/12 02:09:34;;;;;;;7.10;6.67;;;;;;;21.74;64.06;94283.00;4977255;28;20444;-76
2022/06/12 02:15:37;;;;;;;10.90;7.57;;;;;;;21.49;64.93;94275.88;4966019;28;20561;-75
2022/06/12 02:18:08;;;;;;;7.50;6.83;;;;;;;21.49;65.33;94277.75;4950938;28;20449;-75
2022/06/12 02:20:38;;;;;;;8.70;8.00;;;;;;;21.58;64.86;94274.25;4974950;28;20436;-75
2022/06/12 02:23:09;;;;;;;8.47;7.87;;;;;;;21.51;64.99;94267.63;4975114;28;20484;-76
2022/06/12 02:25:38;;;;;;;9.40;8.43;;;;;;;21.42;65.32;94265.50;4965234;28;20425;-75
2022/06/12 02:28:11;;;;;;;7.37;6.77;;;;;;;21.13;65.70;94267.97;4976128;28;20479;-76
2022/06/12 02:30:41;;;;;;;7.97;7.37;;;;;;;21.56;65.07;94276.41;4980504;28;20425;-76
2022/06/12 02:33:13;;;;;;;10.50;7.70;;;;;;;21.44;64.81;94267.94;4975977;28;20456;-77
2022/06/12 02:36:00;;;;;;;9.90;8.20;;;;;;;21.11;66.56;94264.78;4979198;28;20425;-76
2022/06/12 02:38:29;;;;;;;9.70;8.60;;;;;;;21.43;65.37;94261.75;4973745;28;20952;-76
2022/06/12 02:41:03;;;;;;;7.90;7.40;;;;;;;21.71;64.27;94277.44;4981941;28;20436;-75
2022/06/12 02:43:33;;;;;;;9.63;7.97;;;;;;;21.29;65.78;94275.94;4977225;28;20464;-76
2022/06/12 02:46:04;;;;;;;8.73;8.10;;;;;;;21.41;65.25;94271.09;4976729;28;20513;-76
2022/06/12 02:48:31;;;;;;;8.23;7.30;;;;;;;21.15;65.91;94273.03;4975872;28;20449;-76
2022/06/12 02:51:06;;;;;;;8.30;7.60;;;;;;;21.64;64.21;94286.50;4979062;28;20429;-76
2022/06/12 02:53:46;;;;;;;8.47;7.87;;;;;;;;;;4975900;28;20467;-75
2022/06/12 02:56:23;;;;;;;8.10;7.40;;;;;;;21.46;64.84;94281.78;4966510;28;20425;-76
2022/06/12 02:59:07;;;;;;;7.47;6.90;;;;;;;21.57;64.19;94291.31;4977833;28;20436;-76
2022/06/12 03:01:42;;;;;;;8.03;7.33;;;;;;;21.68;63.33;94276.09;4973776;28;20441;-77
2022/06/12 03:04:17;;;;;;;8.40;7.77;;;;;;;21.36;65.17;94287.09;4973698;28;20515;-75
2022/06/12 03:06:43;;;;;;;7.57;7.00;;;;;;;20.94;66.85;94294.34;4975321;28;20500;-76
2022/06/12 03:09:09;;;;;;;8.63;8.03;;;;;;;21.61;64.75;94284.38;4979237;28;20437;-76
2022/06/12 03:11:40;;;;;;;9.60;8.80;;;;;;;21.72;64.18;94284.31;4976602;28;20471;-76
2022/06/12 03:14:10;;;;;;;8.90;8.30;;;;;;;21.75;64.27;94287.25;4972805;28;20441;-76
2022/06/12 03:16:40;;;;;;;7.60;7.10;;;;;;;21.50;64.87;94287.34;4986308;28;20436;-76
2022/06/12 03:19:09;;;;;;;9.43;8.57;;;;;;;21.49;65.25;94291.06;4983095;28;20445;-76
2022/06/12 03:21:49;;;;;;;11.17;10.37;;;;;;;21.37;65.36;94284.16;4977575;28;20432;-75
2022/06/12 03:24:36;;;;;;;8.20;7.50;;;;;;;21.56;64.76;94281.72;4987074;28;20515;-75
2022/06/12 03:27:05;;;;;;;8.50;7.90;;;;;;;21.54;64.91;94281.22;4983354;28;20486;-76
2022/06/12 03:29:39;;;;;;;8.70;8.07;;;;;;;21.49;65.36;94283.09;4987862;28;20531;-75
2022/06/12 03:32:14;;;;;;;8.83;8.13;;;;;;;21.55;64.61;94280.16;4978236;28;20427;-73
2022/06/12 03:35:21;;;;;;;9.00;8.40;;;;;;;21.44;65.45;94281.25;4979372;28;20431;-75
2022/06/12 03:38:01;;;;;;;10.30;8.20;;;;;;;21.55;65.07;94280.16;4925511;29;20442;-75
2022/06/12 03:40:32;;;;;;;8.90;8.30;;;;;;;21.66;64.31;94288.09;4991987;28;20423;-76
2022/06/12 03:43:08;;;;;;;8.87;8.27;;;;;;;21.83;64.05;94292.03;4995526;28;20446;-76
2022/06/12 03:45:54;;;;;;;9.20;8.50;;;;;;;21.74;64.07;94292.84;4986166;28;20438;-76
2022/06/12 03:48:25;;;;;;;8.70;8.10;;;;;;;21.27;65.36;94276.22;4999675;28;20443;-76
2022/06/12 03:51:00;;;;;;;9.00;8.40;;;;;;;21.51;64.95;94284.41;4984199;28;20470;-76
2022/06/12 03:53:46;;;;;;;9.17;8.40;;;;;;;21.24;65.90;94284.72;4986354;28;20444;-76
2022/06/12 03:59:48;;;;;;;10.97;10.07;;;;;;;21.24;66.37;94290.06;4996871;28;20474;-76
2022/06/12 04:02:19;;;;;;;10.23;9.43;;;;;;;21.24;66.42;94290.84;4970192;28;20893;-75
2022/06/12 04:04:46;;;;;;;11.00;10.10;;;;;;;21.00;67.12;94280.00;4986699;28;20699;-75
2022/06/12 04:07:14;;;;;;;11.93;10.80;;;;;;;21.32;66.16;94296.69;4974714;28;20487;-76
2022/06/12 04:09:45;;;;;;;11.33;10.40;;;;;;;21.26;66.50;94296.69;4973494;28;20524;-76
2022/06/12 04:12:33;;;;;;;11.63;10.73;;;;;;;21.50;66.04;94293.47;4979918;28;20897;-75
2022/06/12 04:15:12;;;;;;;12.37;11.27;;;;;;;21.32;66.59;94286.81;4974993;28;20442;-75
2022/06/12 04:17:39;;;;;;;11.63;10.63;;;;;;;21.81;65.23;94302.13;4975509;28;20437;-76
2022/06/12 04:20:05;;;;;;;11.73;10.73;;;;;;;21.98;64.69;94304.44;4975227;28;20417;-76
2022/06/12 04:22:51;;;;;;;11.63;10.53;;;;;;;21.75;65.63;94305.09;4986394;28;20451;-76
2022/06/12 04:25:33;;;;;;;12.57;11.53;;;;;;;21.64;64.88;94297.16;4975527;28;20420;-75
2022/06/12 04:27:59;;;;;;;12.30;11.20;;;;;;;21.52;66.07;94303.88;4976341;28;20452;-75
2022/06/12 04:30:35;;;;;;;12.73;11.70;;;;;;;21.98;64.39;94315.13;4979935;28;20947;-75
2022/06/12 04:33:39;;;;;;;12.67;11.67;;;;;;;22.07;63.77;94312.69;4977399;28;20185;-75
2022/06/12 04:36:06;;;;;;;12.70;11.63;;;;;;;21.77;64.88;94308.28;4907266;28;20440;-76
2022/06/12 04:38:33;;;;;;;14.30;13.10;;;;;;;21.49;65.94;94315.84;4974151;28;20445;-75
2022/06/12 04:41:01;;;;;;;13.00;11.80;;;;;;;21.24;67.16;94314.00;4976709;28;20984;-75
2022/06/12 04:43:26;;;;;;;12.63;11.53;;;;;;;21.87;65.02;94318.09;4974468;28;20468;-74
2022/06/12 04:45:53;;;;;;;13.33;12.13;;;;;;;21.38;66.40;94311.56;4975130;28;20428;-75
2022/06/12 04:48:31;;;;;;;14.83;12.67;;;;;;;21.66;65.31;94309.41;4975623;28;20176;-76
2022/06/12 04:50:56;;;;;;;12.30;11.20;;;;;;;21.68;65.16;94309.91;4964522;28;20467;-76
2022/06/12 04:53:22;;;;;;;11.30;10.30;;;;;;;21.95;64.11;94321.00;4979974;28;20955;-75
2022/06/12 04:55:48;;;;;;;12.93;11.83;;;;;;;22.07;63.68;94327.88;4976515;28;20757;-76
2022/06/12 04:58:13;;;;;;;12.20;11.10;;;;;;;21.92;63.98;94324.22;4975977;28;20193;-75
2022/06/12 05:00:39;;;;;;;11.83;10.83;;;;;;;21.79;64.77;94314.13;4975551;28;20205;-75
2022/06/12 05:03:04;;;;;;;11.67;10.73;;;;;;;21.90;63.93;94325.56;4972616;28;20194;-75
2022/06/12 05:05:30;;;;;;;12.20;10.27;;;;;;;21.95;64.05;94326.34;4973229;28;21798;-75
2022/06/12 05:07:56;;;;;;;12.20;11.20;;;;;;;22.13;63.59;94329.44;4976382;28;20182;-76
2022/06/12 05:10:22;;;;;;;10.93;9.93;;;;;;;22.11;63.11;94334.25;4978550;28;20421;-75
2022/06/12 05:12:48;;;;;;;13.00;12.00;;;;;;;22.47;62.98;94329.53;4973362;28;20610;-76
2022/06/12 05:15:14;;;;;;;11.60;10.70;;;;;;;22.75;62.07;94332.56;4975836;28;20221;-75
2022/06/12 05:17:42;;;;;;;9.50;8.80;;;;;;;22.72;61.61;94331.22;4976324;28;20607;-75
2022/06/12 05:20:15;;;;;;;12.67;11.67;;;;;;;22.50;62.10;94330.84;4974615;28;20976;-75
2022/06/12 05:22:41;;;;;;;11.03;10.23;;;;;;;22.59;62.59;94324.69;4975370;28;20464;-76
2022/06/12 05:25:07;;;;;;;10.87;10.07;;;;;;;23.32;59.50;94331.03;4974569;28;20475;-76
2022/06/12 05:27:32;;;;;;;11.30;10.30;;;;;;;22.94;60.56;94330.00;4974230;28;20178;-76
2022/06/12 05:29:59;;;;;;;9.90;9.10;;;;;;;22.78;60.85;94332.81;4974520;28;20430;-76
2022/06/12 05:32:24;;;;;;;13.20;9.47;;;;;;;22.96;60.93;94330.53;4973890;28;20190;-76
2022/06/12 05:34:50;;;;;;;9.30;8.50;;;;;;;22.89;60.45;94322.03;4979606;28;20821;-75
2022/06/12 05:37:16;;;;;;;10.63;9.83;;;;;;;23.06;59.95;94317.13;4980228;28;20232;-75
2022/06/12 05:39:42;;;;;;;9.80;8.90;;;;;;;22.62;62.26;94333.97;4986342;28;20973;-75
2022/06/12 05:42:07;;;;;;;10.53;9.70;;;;;;;22.98;60.14;94331.84;4981438;28;20177;-76
2022/06/12 05:44:33;;;;;;;10.93;9.93;;;;;;;23.39;59.30;94336.84;4970307;28;20209;-75
2022/06/12 05:46:59;;;;;;;8.83;7.97;;;;;;;22.84;60.80;94333.56;4972027;28;20197;-75
2022/06/12 05:49:27;;;;;;;9.63;8.80;;;;;;;22.71;61.49;94328.84;4968961;28;20469;-75
2022/06/12 05:51:52;;;;;;;10.93;10.03;;;;;;;22.97;60.19;94338.25;4971552;28;20429;-75
2022/06/12 05:54:18;;;;;;;9.87;8.97;;;;;;;23.26;59.63;94326.00;4970429;28;20497;-75
2022/06/12 05:56:43;;;;;;;8.60;7.87;;;;;;;23.13;59.54;94322.13;4970626;28;20643;-75
2022/06/12 05:59:09;;;;;;;10.20;9.40;;;;;;;22.87;60.32;94334.88;4972749;28;20188;-75
2022/06/12 06:01:38;;;;;;;9.47;8.67;;;;;;;23.16;59.63;94332.25;4968378;28;20213;-75
2022/06/12 06:04:04;;;;;;;10.57;9.80;;;;;;;23.47;59.07;94332.75;4980095;28;20206;-75
2022/06/12 06:06:33;;;;;;;10.30;9.50;;;;;;;23.24;59.66;94339.66;4977402;28;20444;-75
2022/06/12 06:08:59;;;;;;;9.37;8.57;;;;;;;23.41;59.00;94344.56;4972749;28;20440;-75
2022/06/12 06:11:25;;;;;;;9.80;9.00;;;;;;;22.74;61.27;94346.97;4967583;28;20474;-75
2022/06/12 06:13:50;;;;;;;9.50;8.70;;;;;;;22.71;61.56;94348.31;4965400;28;21309;-75
2022/06/12 06:16:17;;;;;;;10.57;9.57;;;;;;;22.77;60.81;94349.88;4952020;28;20178;-75
2022/06/12 06:18:42;;;;;;;10.67;9.87;;;;;;;23.15;60.26;94360.03;4951772;28;20218;-75
2022/06/12 06:21:10;;;;;;;8.70;8.00;;;;;;;22.99;60.13;94361.97;4952237;28;20500;-75
2022/06/12 06:23:36;;;;;;;10.70;9.60;;;;;;;23.23;59.76;94351.41;4951142;29;20304;-76
2022/06/12 06:26:02;;;;;;;9.27;8.57;;;;;;;23.36;59.06;94352.63;4949189;28;20889;-76
2022/06/12 06:28:27;;;;;;;10.10;9.30;;;;;;;23.43;58.81;94357.63;4952771;28;20188;-76
2022/06/12 06:30:53;;;;;;;11.03;9.93;;;;;;;23.80;57.42;94362.34;4951624;29;20175;-75
2022/06/12 06:33:18;;;;;;;10.47;9.67;;;;;;;23.84;57.59;94368.72;4952445;28;20934;-75
2022/06/12 06:35:44;;;;;;;9.93;9.13;;;;;;;23.24;59.30;94373.56;4951667;29;20209;-75
2022/06/12 06:38:10;;;;;;;10.67;9.63;;;;;;;23.15;59.38;94374.16;4960564;28;20281;-75
2022/06/12 06:40:36;;;;;;;10.53;9.60;;;;;;;23.18;59.34;94375.47;4950436;29;20678;-75
2022/06/12 06:43:01;;;;;;;11.10;9.47;;;;;;;23.36;58.86;94387.34;4951660;29;20186;-75
2022/06/12 06:48:12;;;;;;;9.20;8.40;;;;;;;22.96;59.82;94381.25;4953482;28;20197;-75
2022/06/12 06:50:39;;;;;;;8.53;7.93;;;;;;;22.94;60.17;94380.72;4951192;29;20426;-76
2022/06/12 06:53:05;;;;;;;10.13;9.33;;;;;;;23.34;59.42;94381.50;4955848;28;20480;-75
2022/06/12 06:55:32;;;;;;;9.97;9.17;;;;;;;23.40;59.56;94383.03;4962377;28;20446;-75
2022/06/12 06:57:58;;;;;;;10.40;9.70;;;;;;;24.03;57.73;94381.34;4953051;28;20530;-76
2022/06/12 07:00:31;;;;;;;11.20;10.30;;;;;;;24.31;57.01;94388.47;4961544;28;20811;-75
2022/06/12 07:02:56;;;;;;;11.50;10.57;;;;;;;24.57;56.02;94380.16;4949918;28;20182;-75
2022/06/12 07:05:22;;;;;;;10.30;9.40;;;;;;;24.43;56.06;94384.59;4961230;28;20437;-75
2022/06/12 07:07:48;;;;;;;10.20;9.40;;;;;;;24.29;56.22;94387.19;4949303;28;20790;-75
2022/06/12 07:10:17;;;;;;;10.47;9.37;;;;;;;24.60;55.77;94387.59;4950178;28;20501;-76
2022/06/12 07:12:43;;;;;;;9.43;8.77;;;;;;;24.59;55.93;94377.97;4949883;28;20222;-75
2022/06/12 07:15:10;;;;;;;9.70;9.00;;;;;;;24.65;55.31;94386.75;4949415;29;20430;-75
2022/06/12 07:17:35;;;;;;;10.47;9.53;;;;;;;24.74;55.28;94383.13;4947192;29;20441;-75
2022/06/12 07:20:02;;;;;;;9.77;8.97;;;;;;;24.78;55.54;94380.66;4950255;28;20442;-75
2022/06/12 07:22:27;;;;;;;8.20;7.60;;;;;;;24.91;54.23;94384.50;4950784;29;20689;-76
2022/06/12 07:24:53;;;;;;;10.83;9.83;;;;;;;24.60;55.56;94382.25;4950948;29;20514;-75
2022/06/12 07:27:18;;;;;;;10.57;9.80;;;;;;;25.25;54.46;94383.44;4951053;29;20548;-76
2022/06/12 07:29:44;;;;;;;9.77;8.97;;;;;;;25.06;54.35;94381.56;4982760;28;20192;-75
2022/06/12 07:32:10;;;;;;;10.17;9.23;;;;;;;24.75;55.63;94382.00;4968998;28;20200;-75
2022/06/12 07:34:36;;;;;;;9.27;8.60;;;;;;;25.23;54.03;94385.59;4970174;28;20226;-75
2022/06/12 07:37:02;;;;;;;9.60;8.90;;;;;;;25.58;52.90;94394.94;4969795;28;20503;-75
2022/06/12 07:39:30;;;;;;;10.30;9.33;;;;;;;25.75;52.80;94390.91;4968686;28;20723;-75
2022/06/12 07:41:57;;;;;;;9.87;8.93;;;;;;;25.07;54.15;94401.91;4968688;28;20449;-76
2022/06/12 07:44:25;;;;;;;9.40;8.63;;;;;;;25.03;54.26;94400.09;4967310;28;20469;-76
2022/06/12 07:46:54;;;;;;;9.00;8.40;;;;;;;24.67;55.79;94401.41;4953123;28;20527;-75
2022/06/12 07:49:21;;;;;;;9.97;9.23;;;;;;;24.95;54.81;94398.88;4968623;28;20445;-75
2022/06/12 07:51:48;;;;;;;9.13;8.50;;;;;;;24.60;55.85;94392.94;4968303;28;20433;-75
2022/06/12 07:54:14;;;;;;;9.27;8.43;;;;;;;25.47;54.04;94404.25;4967225;28;20833;-75
2022/06/12 07:56:39;;;;;;;9.03;8.40;;;;;;;25.90;52.69;94399.44;4965837;28;20437;-76
2022/06/12 07:59:07;;;;;;;9.20;8.50;;;;;;;26.17;51.45;94400.56;4964167;28;20197;-75
2022/06/12 08:01:33;;;;;;;8.90;8.20;;;;;;;25.19;53.71;94406.00;4964455;28;20180;-75
2022/06/12 08:03:59;;;;;;;9.90;9.10;;;;;;;25.56;53.81;94401.69;4970293;28;20472;-75
2022/06/12 08:06:25;;;;;;;9.27;8.37;;;;;;;25.53;53.58;94403.06;4965315;28;20516;-74
2022/06/12 08:08:50;;;;;;;10.47;9.37;;;;;;;25.39;54.29;94405.72;4968819;28;20209;-75
2022/06/12 08:11:21;;;;;;;8.70;8.10;;;;;;;25.19;53.99;94406.00;4970312;28;20818;-74
2022/06/12 08:13:46;;;;;;;9.20;8.50;;;;;;;25.53;52.94;94400.38;4974019;28;20229;-74
2022/06/12 08:16:12;;;;;;;9.00;8.27;;;;;;;25.77;52.41;94394.88;4954111;28;20448;-74
2022/06/12 08:18:37;;;;;;;9.60;8.80;;;;;;;25.75;53.35;94399.72;4970220;28;20662;-75
2022/06/12 08:21:08;;;;;;;11.50;9.17;;;;;;;25.74;53.52;94400.81;4969855;28;20661;-75
2022/06/12 08:23:58;;;;;;;9.57;8.77;;;;;;;25.49;54.31;94400.16;4972415;28;20221;-76
2022/06/12 08:26:30;;;;;;;8.97;8.20;;;;;;;25.54;53.45;94406.56;4968166;28;20510;-74
2022/06/12 08:29:05;;;;;;;8.77;8.07;;;;;;;25.52;52.56;94412.19;4971972;28;20987;-75
2022/06/12 08:31:36;;;;;;;8.97;8.30;;;;;;;25.44;53.11;94405.63;4972675;28;20508;-74
2022/06/12 08:34:06;;;;;;;9.43;8.63;;;;;;;25.38;53.80;94420.19;4972338;28;21150;-75
2022/06/12 08:36:32;;;;;;;9.23;8.40;;;;;;;24.64;55.40;94409.22;4970615;28;20500;-74
2022/06/12 08:38:59;;;;;;;10.40;9.60;;;;;;;24.70;56.33;94416.91;4971402;28;20425;-75
2022/06/12 08:41:39;;;;;;;10.50;9.70;;;;;;;24.35;57.18;94416.25;4972928;28;20416;-75
2022/06/12 08:44:25;;;;;;;11.03;10.17;;;;;;;24.52;57.15;94412.31;4968872;28;20587;-75
2022/06/12 08:47:14;;;;;;;11.70;9.33;;;;;;;24.78;56.87;94422.69;4969994;28;20448;-75
2022/06/12 08:50:25;;;;;;;9.30;8.60;;;;;;;24.44;57.64;94419.09;4971032;28;20425;-75
2022/06/12 08:52:57;;;;;;;10.00;9.13;;;;;;;25.29;55.87;94422.75;4948670;28;20433;-75
2022/06/12 08:55:42;;;;;;;8.30;7.70;;;;;;;25.07;56.06;94434.03;4970660;28;20430;-75
2022/06/12 08:58:22;;;;;;;7.80;7.30;;;;;;;24.83;55.69;94434.09;4971177;28;20443;-76
2022/06/12 09:00:48;;;;;;;10.07;9.20;;;;;;;24.35;57.11;94424.25;4969567;28;20519;-76
2022/06/12 09:03:23;;;;;;;7.83;7.20;;;;;;;24.50;57.54;94423.28;4971336;28;20447;-75
2022/06/12 09:05:59;;;;;;;7.90;7.20;;;;;;;25.08;56.34;94427.59;4971407;28;20200;-75
2022/06/12 09:08:30;;;;;;;11.23;8.50;;;;;;;25.64;54.46;94422.44;4970012;28;20446;-78
2022/06/12 09:11:12;;;;;;;8.03;7.27;;;;;;;25.98;54.02;94421.34;4972015;28;20425;-74
2022/06/12 09:14:03;;;;;;;8.57;7.97;;;;;;;26.52;53.08;94419.72;4969376;28;20453;-74
2022/06/12 09:16:54;;;;;;;7.27;6.77;;;;;;;25.96;52.81;94423.53;4968999;28;21014;-74
2022/06/12 09:19:41;;;;;;;7.83;7.23;;;;;;;25.97;52.55;94422.41;4956819;28;21029;-76
2022/06/12 09:22:13;;;;;;;8.33;7.53;;;;;;;26.20;51.59;94424.13;4971710;28;20421;-74
2022/06/12 09:24:45;;;;;;;8.57;7.77;;;;;;;26.28;51.77;94420.72;4971621;28;20492;-75
2022/06/12 09:27:37;;;;;;;7.67;7.07;;;;;;;26.30;51.90;94421.22;4972157;28;20456;-75
2022/06/12 09:30:10;;;;;;;6.17;5.77;;;;;;;26.88;50.17;94424.34;4978839;28;20939;-75
2022/06/12 09:33:06;;;;;;;7.73;7.03;;;;;;;26.48;51.46;94421.41;4975334;28;20515;-76
2022/06/12 09:35:48;;;;;;;6.30;5.80;;;;;;;25.83;51.63;94425.84;4970973;28;20445;-74
2022/06/12 09:38:22;;;;;;;5.57;5.23;;;;;;;26.38;50.77;94429.69;4971021;28;20560;-74
2022/06/12 09:40:57;;;;;;;7.73;6.97;;;;;;;25.94;52.53;94439.13;4974188;28;20422;-75
2022/06/12 09:44:01;;;;;;;7.80;7.03;;;;;;;26.73;51.11;94440.78;4968748;28;20527;-75
2022/06/12 09:46:47;;;;;;;6.93;6.47;;;;;;;27.32;49.72;94447.03;4911895;28;21111;-75
2022/06/12 09:49:18;;;;;;;7.10;6.70;;;;;;;27.64;47.50;94437.09;4966216;28;21181;-75
2022/06/12 09:51:44;;;;;;;6.10;5.60;;;;;;;26.07;50.14;94432.97;4970870;28;20797;-75
2022/06/12 09:54:09;;;;;;;7.77;7.27;;;;;;;25.84;51.68;94422.09;4972892;28;20445;-75
2022/06/12 09:56:44;;;;;;;6.97;6.33;;;;;;;26.27;51.91;94423.72;4972147;28;20178;-75
2022/06/12 09:59:13;;;;;;;6.83;6.33;;;;;;;25.63;52.52;94424.34;4969505;28;20216;-74
2022/06/12 10:01:42;;;;;;;6.67;6.17;;;;;;;25.61;53.89;94428.38;4975253;28;20432;-74
2022/06/12 10:04:23;;;;;;;6.07;5.67;;;;;;;26.43;50.98;94421.53;4970655;28;20476;-80
2022/06/12 10:07:05;;;;;;;6.50;6.00;;;;;;;25.52;53.63;94426.38;4972399;28;20424;-75
2022/06/12 10:09:45;;;;;;;5.77;5.37;;;;;;;24.87;55.52;94416.41;4970830;28;20436;-75
2022/06/12 10:12:11;;;;;;;7.47;6.10;;;;;;;24.71;56.69;94417.69;4971753;28;20492;-76
2022/06/12 10:14:41;;;;;;;6.57;6.07;;;;;;;24.92;56.10;94418.19;4971686;28;20945;-76
2022/06/12 10:17:14;;;;;;;6.70;6.20;;;;;;;25.47;54.64;94414.97;4967860;28;20260;-75
2022/06/12 10:19:49;;;;;;;7.03;6.63;;;;;;;25.47;54.47;94417.63;4968851;28;20501;-76
2022/06/12 10:22:30;;;;;;;10.43;9.57;;;;;;;25.26;54.34;94414.50;4970651;28;20580;-78
2022/06/12 10:24:57;;;;;;;7.57;7.00;;;;;;;25.54;54.03;94409.22;4969557;28;20480;-74
2022/06/12 10:27:24;;;;;;;6.60;6.10;;;;;;;25.99;52.10;94406.81;4973898;28;20435;-75
2022/06/12 10:29:57;;;;;;;7.00;6.40;;;;;;;24.71;54.01;94415.81;4974666;28;20445;-75
2022/06/12 10:32:27;;;;;;;6.10;5.70;;;;;;;25.19;53.50;94411.38;4972287;28;20449;-76
2022/06/12 10:35:04;;;;;;;6.40;6.00;;;;;;;25.14;53.97;94409.56;4971161;28;20425;-77
2022/06/12 10:37:29;;;;;;;6.03;5.73;;;;;;;25.80;52.68;94410.38;4971480;28;20440;-77
2022/06/12 10:40:05;;;;;;;6.50;5.90;;;;;;;24.77;54.43;94413.84;4973669;28;20435;-78
2022/06/12 10:43:02;;;;;;;8.33;7.53;;;;;;;25.63;54.23;94412.78;4974016;28;20177;-76
2022/06/12 10:45:33;;;;;;;6.83;6.37;;;;;;;25.94;52.89;94414.97;4972520;28;20972;-77
2022/06/12 10:48:02;;;;;;;6.23;5.83;;;;;;;26.68;51.73;94417.53;4971766;28;20527;-77
2022/06/12 10:50:48;;;;;;;6.37;5.87;;;;;;;25.67;50.89;94411.94;4968868;28;20443;-76
2022/06/12 10:53:17;;;;;;;6.73;5.20;;;;;;;25.98;49.74;94415.97;4975025;28;20535;-78
2022/06/12 10:55:47;;;;;;;5.20;4.90;;;;;;;26.38;50.09;94408.22;4970435;28;20453;-77
2022/06/12 10:58:36;;;;;;;5.70;5.30;;;;;;;27.39;49.00;94412.44;4969353;28;20579;-76
2022/06/12 11:01:24;;;;;;;6.63;6.10;;;;;;;27.46;47.29;94406.63;4973000;28;20956;-76
2022/06/12 11:04:10;;;;;;;7.03;6.43;;;;;;;27.22;49.97;94414.97;4970312;28;20575;-77
2022/06/12 11:06:50;;;;;;;7.90;5.70;;;;;;;27.57;48.68;94404.50;4968137;28;21226;-78
2022/06/12 11:09:50;;;;;;;7.30;6.80;;;;;;;28.02;48.15;94410.59;4970193;28;20437;-77
2022/06/12 11:12:37;;;;;;;5.63;5.20;;;;;;;27.00;49.40;94403.13;4968780;28;20522;-77
2022/06/12 11:15:13;;;;;;;5.20;4.90;;;;;;;26.99;48.00;94398.06;4971079;28;20889;-76
2022/06/12 11:17:46;;;;;;;5.70;5.30;;;;;;;26.38;48.35;94394.78;4970658;28;20436;-77
2022/06/12 11:20:26;;;;;;;5.27;4.87;;;;;;;26.91;49.53;94394.19;4971240;28;21071;-76
2022/06/12 11:23:08;;;;;;;5.23;4.93;;;;;;;28.22;46.76;94394.97;4971251;28;20468;-76
2022/06/12 11:25:54;;;;;;;6.10;4.57;;;;;;;28.58;45.15;94392.06;4970680;28;20425;-77
2022/06/12 11:28:44;;;;;;;4.80;4.40;;;;;;;28.60;43.62;94395.25;4971595;28;20448;-76
2022/06/12 11:31:32;;;;;;;5.03;4.63;;;;;;;29.60;42.78;94395.41;4957569;28;20484;-76
2022/06/12 11:34:21;;;;;;;5.80;5.40;;;;;;;29.28;43.45;94396.72;4965544;28;20552;-77
2022/06/12 11:37:16;;;;;;;4.20;3.90;;;;;;;28.23;43.83;94391.19;4954374;28;20432;-76
2022/06/12 11:40:06;;;;;;;7.03;5.60;;;;;;;28.33;44.41;94390.13;4965798;28;20463;-77
2022/06/12 11:42:39;;;;;;;5.83;5.43;;;;;;;28.76;44.45;94386.72;4963978;28;20433;-76
2022/06/12 11:45:12;;;;;;;6.47;5.87;;;;;;;28.65;44.38;94388.94;4969636;28;21472;-78
2022/06/12 11:47:53;;;;;;;5.77;5.37;;;;;;;27.43;47.93;94397.31;4966027;28;20441;-77
2022/06/12 11:50:28;;;;;;;6.97;6.47;;;;;;;28.18;46.56;94385.94;4972116;28;20427;-78
2022/06/12 11:52:56;;;;;;;6.10;5.70;;;;;;;28.59;44.92;94390.97;4973096;28;20504;-76
2022/06/12 11:55:30;;;;;;;6.93;6.33;;;;;;;28.18;44.70;94386.72;4971681;28;20438;-76
2022/06/12 11:57:58;;;;;;;7.77;6.30;;;;;;;27.25;47.83;94390.22;4974231;28;20472;-77
2022/06/12 12:00:36;;;;;;;7.80;5.77;;;;;;;27.04;49.10;94389.88;4972339;28;20444;-76
2022/06/12 12:03:27;;;;;;;7.90;7.30;;;;;;;27.81;47.65;94386.09;4972964;28;20467;-77
2022/06/12 12:06:08;;;;;;;7.10;6.60;;;;;;;27.63;47.68;94377.16;4956341;28;20506;-77
2022/06/12 12:08:57;;;;;;;6.30;5.90;;;;;;;27.03;48.71;94385.59;4972641;28;20445;-77
2022/06/12 12:11:30;;;;;;;8.53;7.83;;;;;;;26.97;51.68;94387.59;4968859;28;20574;-76